Time;durP1;ratioP1;P1;durP2;ratioP2;P2;SDS_P1;SDS_P2;PMS_P1;PMS_P2;Temp;Humidity;BMP_temperature;BMP_pressure;BME280_temperature;BME280_humidity;BME280_pressure;Samples;Min_cycle;Max_cycle;Signal;HPM_P1;HPM_P2
2023/08/20 00:00:57;;;;;;;11.75;10.55;;;25.30;86.80;;;;;;5014388;28;20101;-85
2023/08/20 00:03:23;;;;;;;12.48;11.27;;;25.20;87.00;;;;;;5014746;28;20029;-85
2023/08/20 00:05:49;;;;;;;11.93;10.77;;;25.20;87.60;;;;;;5013712;28;20026;-85
2023/08/20 00:08:14;;;;;;;12.00;10.20;;;25.20;88.50;;;;;;5013410;28;20425;-86
2023/08/20 00:10:40;;;;;;;12.57;11.27;;;25.20;89.20;;;;;;5014646;28;20057;-85
2023/08/20 00:13:06;;;;;;;12.35;10.82;;;25.20;89.50;;;;;;5013378;28;20030;-86
2023/08/20 00:15:32;;;;;;;11.85;10.30;;;25.20;89.40;;;;;;5014635;28;20021;-85
2023/08/20 00:17:57;;;;;;;10.95;9.85;;;25.20;89.10;;;;;;5014869;28;20022;-86
2023/08/20 00:20:24;;;;;;;12.45;10.98;;;25.20;88.80;;;;;;5013303;28;20029;-86
2023/08/20 00:22:50;;;;;;;11.20;10.00;;;25.20;88.70;;;;;;5013244;28;20058;-85
2023/08/20 00:25:17;;;;;;;12.82;11.20;;;25.10;89.10;;;;;;5013275;28;20070;-86
2023/08/20 00:27:43;;;;;;;13.95;11.52;;;25.20;89.60;;;;;;5013306;28;20037;-85
2023/08/20 00:30:10;;;;;;;11.57;10.48;;;25.10;89.70;;;;;;5014366;28;20026;-86
2023/08/20 00:32:36;;;;;;;11.48;10.43;;;25.10;89.80;;;;;;5014293;28;20497;-86
2023/08/20 00:35:03;;;;;;;11.52;10.32;;;25.10;90.00;;;;;;5013062;28;20129;-86
2023/08/20 00:37:29;;;;;;;12.25;10.77;;;25.10;90.20;;;;;;5013111;28;20423;-86
2023/08/20 00:39:54;;;;;;;12.10;11.02;;;25.10;90.40;;;;;;5014746;28;20072;-86
2023/08/20 00:42:20;;;;;;;11.80;10.70;;;25.10;90.80;;;;;;5014769;28;20029;-85
2023/08/20 00:44:46;;;;;;;11.93;10.82;;;25.10;91.00;;;;;;5014197;28;20061;-85
2023/08/20 00:47:13;;;;;;;12.75;11.45;;;25.10;91.30;;;;;;5014065;28;20048;-86
2023/08/20 00:49:40;;;;;;;12.75;11.48;;;25.10;91.40;;;;;;5013921;28;20034;-86
2023/08/20 00:52:08;;;;;;;12.82;11.57;;;25.10;91.60;;;;;;5029433;28;20508;-86
2023/08/20 00:54:35;;;;;;;12.18;11.07;;;25.00;91.70;;;;;;5013931;28;20471;-86
2023/08/20 00:57:02;;;;;;;14.55;11.18;;;25.00;91.80;;;;;;5013980;28;20018;-85
2023/08/20 00:59:29;;;;;;;13.98;11.57;;;25.00;92.00;;;;;;5012659;28;20432;-85
2023/08/20 01:01:55;;;;;;;12.63;11.43;;;25.00;92.30;;;;;;5013875;28;20029;-86
2023/08/20 01:04:20;;;;;;;12.60;11.32;;;25.00;92.60;;;;;;5013750;28;20030;-85
2023/08/20 01:06:58;;;;;;;13.43;12.10;;;25.00;92.70;;;;;;5012350;28;20061;-85
2023/08/20 01:09:46;;;;;;;14.00;12.40;;;25.00;92.80;;;;;;5012192;28;20028;-86
2023/08/20 01:12:14;;;;;;;13.63;11.90;;;25.00;92.80;;;;;;5013623;28;20026;-85
2023/08/20 01:14:40;;;;;;;13.27;11.98;;;24.90;93.20;;;;;;5013761;28;20093;-86
2023/08/20 01:17:06;;;;;;;13.65;12.15;;;24.90;93.50;;;;;;5013778;28;20079;-86
2023/08/20 01:19:32;;;;;;;13.32;11.95;;;24.90;93.70;;;;;;5012365;28;20030;-85
2023/08/20 01:22:19;;;;;;;13.57;12.30;;;24.90;93.90;;;;;;5012035;28;20026;-86
2023/08/20 01:24:54;;;;;;;13.40;12.10;;;24.90;94.00;;;;;;5011944;28;20436;-85
2023/08/20 01:27:57;;;;;;;14.15;12.75;;;24.80;93.80;;;;;;5011991;28;20408;-85
2023/08/20 01:30:24;;;;;;;14.10;12.75;;;24.80;93.50;;;;;;5012064;28;20034;-85
2023/08/20 01:32:53;;;;;;;13.50;12.07;;;24.80;94.20;;;;;;5011756;28;20056;-86
2023/08/20 01:35:18;;;;;;;14.27;12.77;;;24.80;94.40;;;;;;5011630;28;20053;-85
2023/08/20 01:37:45;;;;;;;13.15;11.73;;;24.80;94.60;;;;;;5013099;28;20026;-86
2023/08/20 01:40:11;;;;;;;13.48;12.18;;;24.80;94.80;;;;;;5013154;28;20473;-85
2023/08/20 01:42:40;;;;;;;14.07;12.57;;;24.70;94.80;;;;;;5013028;28;20025;-86
2023/08/20 01:45:07;;;;;;;13.77;12.48;;;24.70;94.90;;;;;;5011865;28;20073;-86
2023/08/20 01:47:33;;;;;;;13.60;12.30;;;24.70;95.10;;;;;;5011634;28;20073;-85
2023/08/20 01:49:59;;;;;;;14.40;13.00;;;24.70;95.30;;;;;;5011511;28;20512;-86
2023/08/20 01:52:25;;;;;;;15.63;13.35;;;24.70;95.50;;;;;;5011500;28;20121;-85
2023/08/20 01:54:51;;;;;;;14.35;12.95;;;24.70;95.70;;;;;;5011491;28;20034;-86
2023/08/20 01:57:17;;;;;;;14.10;12.77;;;24.60;95.90;;;;;;5013066;28;20446;-85
2023/08/20 01:59:43;;;;;;;13.48;12.18;;;24.70;96.00;;;;;;5011500;28;20448;-85
2023/08/20 02:02:08;;;;;;;13.88;12.18;;;24.70;96.20;;;;;;5011327;28;20128;-85
2023/08/20 02:04:34;;;;;;;14.50;13.10;;;24.60;96.30;;;;;;5011611;28;20113;-86
2023/08/20 02:07:00;;;;;;;14.23;12.82;;;24.60;96.40;;;;;;5012667;28;20084;-86
2023/08/20 02:09:26;;;;;;;14.02;12.63;;;24.70;96.50;;;;;;5012480;28;20026;-85
2023/08/20 02:11:52;;;;;;;15.73;12.88;;;24.60;96.60;;;;;;5011238;28;20026;-86
2023/08/20 02:14:18;;;;;;;14.55;13.15;;;24.70;96.70;;;;;;5012760;28;20050;-85
2023/08/20 02:16:45;;;;;;;14.00;12.50;;;24.70;96.70;;;;;;5011385;28;20068;-85
2023/08/20 02:19:11;;;;;;;14.30;12.95;;;24.70;96.90;;;;;;5012402;28;20109;-86
2023/08/20 02:21:37;;;;;;;14.50;13.02;;;24.60;97.00;;;;;;5027660;28;20116;-86
2023/08/20 02:24:03;;;;;;;15.13;13.52;;;24.60;97.00;;;;;;5010735;28;20041;-85
2023/08/20 02:26:29;;;;;;;17.27;12.70;;;24.60;96.90;;;;;;5012299;28;20093;-85
2023/08/20 02:28:56;;;;;;;16.48;13.15;;;24.60;97.00;;;;;;5010782;28;20025;-85
2023/08/20 02:31:21;;;;;;;14.48;13.00;;;24.60;97.00;;;;;;5010750;28;20397;-86
2023/08/20 02:33:47;;;;;;;15.40;14.00;;;24.60;97.00;;;;;;5012485;28;20018;-86
2023/08/20 02:36:13;;;;;;;15.15;13.65;;;24.60;97.10;;;;;;5010473;28;20099;-85
2023/08/20 02:38:41;;;;;;;14.63;13.23;;;24.60;97.10;;;;;;5012082;28;20112;-86
2023/08/20 02:41:07;;;;;;;15.15;13.65;;;24.60;97.20;;;;;;5010767;28;20120;-85
2023/08/20 02:43:32;;;;;;;14.45;13.13;;;24.50;97.20;;;;;;5012009;28;20554;-86
2023/08/20 02:45:58;;;;;;;14.52;13.10;;;24.50;97.10;;;;;;5010829;28;20187;-86
2023/08/20 02:48:28;;;;;;;16.25;14.10;;;24.50;97.20;;;;;;5011928;28;20033;-86
2023/08/20 02:50:54;;;;;;;15.20;13.70;;;24.50;97.00;;;;;;5027149;28;20041;-85
2023/08/20 02:53:20;;;;;;;15.13;13.52;;;24.50;96.90;;;;;;5010527;28;20478;-86
2023/08/20 02:55:46;;;;;;;16.98;13.85;;;24.40;97.00;;;;;;5011840;28;20022;-86
2023/08/20 02:58:12;;;;;;;15.32;13.93;;;24.40;97.10;;;;;;5010493;28;20394;-85
2023/08/20 03:00:38;;;;;;;14.75;13.40;;;24.30;97.20;;;;;;5011798;28;20025;-85
2023/08/20 03:03:07;;;;;;;15.32;13.75;;;24.30;97.40;;;;;;5012089;28;20033;-86
2023/08/20 03:05:36;;;;;;;15.45;13.45;;;24.30;97.60;;;;;;5010755;28;20029;-86
2023/08/20 03:08:03;;;;;;;14.88;13.40;;;24.30;97.70;;;;;;5027058;28;20198;-86
2023/08/20 03:10:30;;;;;;;15.30;13.82;;;24.30;97.80;;;;;;5010368;28;20026;-85
2023/08/20 03:12:55;;;;;;;15.52;14.02;;;24.30;97.90;;;;;;5011902;28;20103;-86
2023/08/20 03:15:21;;;;;;;15.07;13.60;;;24.30;98.20;;;;;;5011849;28;20061;-85
2023/08/20 03:17:47;;;;;;;15.18;13.68;;;24.30;97.90;;;;;;5010189;28;20028;-86
2023/08/20 03:20:12;;;;;;;14.70;13.32;;;24.30;98.00;;;;;;5011650;28;20109;-86
2023/08/20 03:22:38;;;;;;;14.90;13.32;;;24.30;98.00;;;;;;5010227;28;20065;-85
2023/08/20 03:25:05;;;;;;;13.57;12.18;;;24.30;97.80;;;;;;5010327;28;20026;-86
2023/08/20 03:27:31;;;;;;;14.30;12.90;;;24.30;97.60;;;;;;5011646;28;20026;-86
2023/08/20 03:29:57;;;;;;;14.10;12.80;;;24.40;97.50;;;;;;5010219;28;20030;-86
2023/08/20 03:32:23;;;;;;;14.60;13.10;;;24.30;97.20;;;;;;5011504;28;20410;-86
2023/08/20 03:34:48;;;;;;;14.40;13.07;;;24.40;97.00;;;;;;5012577;28;20105;-86
2023/08/20 03:37:14;;;;;;;14.65;13.15;;;24.40;96.70;;;;;;5015396;28;20452;-85
2023/08/20 03:39:40;;;;;;;14.65;13.18;;;24.50;96.60;;;;;;5014074;28;20040;-85
2023/08/20 03:42:05;;;;;;;17.58;13.02;;;24.40;96.50;;;;;;5015247;28;20544;-85
2023/08/20 03:44:31;;;;;;;15.02;13.60;;;24.50;96.40;;;;;;5014141;28;20478;-85
2023/08/20 03:46:57;;;;;;;14.43;12.95;;;24.50;96.40;;;;;;5015318;28;20485;-86
2023/08/20 03:49:23;;;;;;;14.73;13.32;;;24.50;96.10;;;;;;5015178;28;20073;-85
2023/08/20 03:51:48;;;;;;;13.68;12.13;;;24.50;96.00;;;;;;5014027;28;20061;-86
2023/08/20 03:54:14;;;;;;;14.02;12.63;;;24.60;95.90;;;;;;5013994;28;20033;-85
2023/08/20 03:56:40;;;;;;;14.18;12.68;;;24.60;95.80;;;;;;5015434;28;20022;-86
2023/08/20 03:59:06;;;;;;;14.88;13.38;;;24.60;95.90;;;;;;5014929;28;20389;-85
2023/08/20 04:01:32;;;;;;;15.20;13.48;;;24.60;96.00;;;;;;5030183;28;20113;-86
2023/08/20 04:03:57;;;;;;;14.18;12.65;;;24.60;95.80;;;;;;5013817;28;20126;-85
2023/08/20 04:06:23;;;;;;;14.27;12.77;;;24.70;95.80;;;;;;5015098;28;20401;-86
2023/08/20 04:08:49;;;;;;;13.80;12.50;;;24.70;95.70;;;;;;5014676;28;20061;-86
2023/08/20 04:11:15;;;;;;;14.05;12.52;;;24.80;95.30;;;;;;5013322;28;20049;-85
2023/08/20 04:13:43;;;;;;;13.88;12.57;;;24.80;95.00;;;;;;5013452;28;20029;-86
2023/08/20 04:16:09;;;;;;;14.20;12.90;;;24.80;94.90;;;;;;5013237;28;20018;-85
2023/08/20 04:18:35;;;;;;;15.15;13.13;;;24.90;94.80;;;;;;5013233;28;20486;-85
2023/08/20 04:21:00;;;;;;;14.27;12.98;;;25.00;94.60;;;;;;5013943;28;20022;-85
2023/08/20 04:23:26;;;;;;;13.48;12.18;;;25.00;94.50;;;;;;5013372;28;20112;-85
2023/08/20 04:25:52;;;;;;;13.13;11.82;;;25.20;94.30;;;;;;5013254;28;20045;-86
2023/08/20 04:28:18;;;;;;;12.93;11.63;;;25.20;93.70;;;;;;5014383;28;20033;-86
2023/08/20 04:30:44;;;;;;;16.42;11.80;;;25.30;93.20;;;;;;5014580;28;20083;-86
2023/08/20 04:33:10;;;;;;;13.20;12.00;;;25.40;92.90;;;;;;5013106;28;20120;-86
2023/08/20 04:35:35;;;;;;;12.25;11.10;;;25.40;92.70;;;;;;5014289;28;20041;-86
2023/08/20 04:38:02;;;;;;;13.98;12.57;;;25.50;92.50;;;;;;5014603;28;20030;-86
2023/08/20 04:40:28;;;;;;;14.27;12.32;;;25.50;92.50;;;;;;5015756;28;20486;-85
2023/08/20 04:42:53;;;;;;;13.68;12.38;;;25.60;92.40;;;;;;5015495;28;20116;-85
2023/08/20 04:45:19;;;;;;;13.25;11.88;;;25.70;92.10;;;;;;5012569;28;20030;-85
2023/08/20 04:47:45;;;;;;;13.73;12.32;;;25.90;91.50;;;;;;5012929;28;20083;-86
2023/08/20 04:50:13;;;;;;;13.48;12.07;;;26.00;91.20;;;;;;5013851;28;20121;-85
2023/08/20 04:52:39;;;;;;;14.38;12.50;;;26.00;90.90;;;;;;5013878;28;20022;-86
2023/08/20 04:55:06;;;;;;;12.60;11.30;;;26.00;90.80;;;;;;5013981;28;20425;-86
2023/08/20 04:57:31;;;;;;;13.10;11.75;;;26.00;90.70;;;;;;5014066;28;20107;-86
2023/08/20 04:59:57;;;;;;;12.45;11.15;;;26.00;90.20;;;;;;5013909;28;20053;-85
2023/08/20 05:02:23;;;;;;;12.93;11.60;;;26.00;90.00;;;;;;5012493;28;20065;-85
2023/08/20 05:04:49;;;;;;;13.13;11.00;;;26.00;89.60;;;;;;5013836;28;20084;-86
2023/08/20 05:07:14;;;;;;;11.82;10.63;;;26.00;89.30;;;;;;5012631;28;20034;-86
2023/08/20 05:09:40;;;;;;;12.55;11.45;;;26.00;89.20;;;;;;5012398;28;20058;-85
2023/08/20 05:12:06;;;;;;;11.93;10.80;;;26.10;88.90;;;;;;5012280;28;20026;-86
2023/08/20 05:14:32;;;;;;;13.95;10.82;;;26.10;88.10;;;;;;5012151;28;20494;-86
2023/08/20 05:16:58;;;;;;;12.60;10.90;;;26.20;87.70;;;;;;5012122;28;20049;-86
2023/08/20 05:19:24;;;;;;;12.10;10.90;;;26.30;87.00;;;;;;5013315;28;20038;-85
2023/08/20 05:21:49;;;;;;;12.02;10.80;;;26.30;86.70;;;;;;5012092;28;20033;-85
2023/08/20 05:24:15;;;;;;;11.80;10.55;;;26.40;86.50;;;;;;5013415;28;20101;-86
2023/08/20 05:26:40;;;;;;;13.25;10.57;;;26.40;86.10;;;;;;5012131;28;20029;-85
2023/08/20 05:29:06;;;;;;;12.25;10.93;;;26.50;86.00;;;;;;5011899;28;20030;-86
2023/08/20 05:31:32;;;;;;;13.18;10.52;;;26.70;85.60;;;;;;5013333;28;20041;-85
2023/08/20 05:33:58;;;;;;;12.43;11.15;;;26.80;85.00;;;;;;5011867;28;20053;-85
2023/08/20 05:36:24;;;;;;;11.80;10.73;;;26.90;84.40;;;;;;5027966;28;20046;-86
2023/08/20 05:38:49;;;;;;;11.88;10.68;;;26.90;84.10;;;;;;5012029;28;20033;-86
2023/08/20 05:41:15;;;;;;;11.82;10.68;;;27.00;83.90;;;;;;5012042;28;20034;-86
2023/08/20 05:43:41;;;;;;;12.50;11.20;;;27.00;83.90;;;;;;5013043;28;20022;-86
2023/08/20 05:46:06;;;;;;;12.00;10.70;;;27.00;84.10;;;;;;5012318;28;20040;-85
2023/08/20 05:48:32;;;;;;;11.90;10.70;;;27.00;83.90;;;;;;5013230;28;20041;-86
2023/08/20 05:50:57;;;;;;;12.20;11.10;;;27.00;83.70;;;;;;5028558;28;20088;-86
2023/08/20 05:53:23;;;;;;;11.98;10.77;;;27.00;83.60;;;;;;5027840;28;20539;-86
2023/08/20 05:55:49;;;;;;;12.35;11.15;;;27.00;83.50;;;;;;5012760;28;20524;-86
2023/08/20 05:58:14;;;;;;;11.40;10.30;;;27.10;83.70;;;;;;5010873;28;20033;-86
2023/08/20 06:00:41;;;;;;;13.65;10.73;;;27.10;83.60;;;;;;5011172;28;20064;-87
2023/08/20 06:03:07;;;;;;;13.07;10.55;;;27.20;83.30;;;;;;5010056;28;20038;-86
2023/08/20 06:05:33;;;;;;;12.25;10.90;;;27.20;83.20;;;;;;5026093;28;20033;-86
2023/08/20 06:07:59;;;;;;;12.00;10.65;;;27.30;83.10;;;;;;5009419;28;20040;-86
2023/08/20 06:10:25;;;;;;;12.07;10.88;;;27.30;82.70;;;;;;5011269;28;20108;-86
2023/08/20 06:12:50;;;;;;;10.68;9.68;;;27.30;83.20;;;;;;5011981;28;20032;-85
2023/08/20 06:15:16;;;;;;;11.38;10.38;;;27.30;82.40;;;;;;5010742;28;20075;-86
2023/08/20 06:17:42;;;;;;;12.65;11.43;;;27.40;82.30;;;;;;5026774;28;20474;-86
2023/08/20 06:20:08;;;;;;;11.82;10.63;;;27.40;82.00;;;;;;5011163;28;20033;-86
2023/08/20 06:22:34;;;;;;;12.00;10.90;;;27.50;81.60;;;;;;5012864;28;20034;-86
2023/08/20 06:25:00;;;;;;;12.38;10.93;;;27.50;81.50;;;;;;5009735;28;20474;-86
2023/08/20 06:27:26;;;;;;;12.45;11.23;;;27.50;81.40;;;;;;5009404;28;20056;-86
2023/08/20 06:29:51;;;;;;;12.15;10.95;;;27.50;81.20;;;;;;5009004;28;20053;-86
2023/08/20 06:32:17;;;;;;;12.50;11.30;;;27.50;80.90;;;;;;5009549;28;20022;-87
2023/08/20 06:34:43;;;;;;;11.57;10.48;;;27.50;80.90;;;;;;5009209;28;20028;-86
2023/08/20 06:37:08;;;;;;;11.45;10.40;;;27.60;80.80;;;;;;5008967;28;20077;-86
2023/08/20 06:39:34;;;;;;;12.38;10.82;;;27.60;80.80;;;;;;5010243;28;20089;-86
2023/08/20 06:42:00;;;;;;;11.75;10.63;;;27.60;80.90;;;;;;5011391;28;20029;-85
2023/08/20 06:44:26;;;;;;;12.55;11.35;;;27.60;80.80;;;;;;5011031;28;20026;-86
2023/08/20 06:46:51;;;;;;;10.93;9.82;;;27.70;80.90;;;;;;5011174;28;20032;-86
2023/08/20 06:49:17;;;;;;;12.13;10.93;;;27.70;80.90;;;;;;5009924;28;20026;-86
2023/08/20 06:51:43;;;;;;;12.82;11.48;;;27.70;81.20;;;;;;5010682;28;20382;-86
2023/08/20 06:54:09;;;;;;;12.90;11.27;;;27.70;81.10;;;;;;5010582;28;20018;-86
2023/08/20 06:56:34;;;;;;;11.90;10.63;;;27.80;81.20;;;;;;5011813;28;20032;-86
2023/08/20 06:59:00;;;;;;;11.45;10.30;;;27.80;81.40;;;;;;5011802;28;20034;-85
2023/08/20 07:01:26;;;;;;;11.98;10.82;;;27.80;81.30;;;;;;5010831;28;20021;-86
2023/08/20 07:03:52;;;;;;;11.95;10.60;;;27.80;81.30;;;;;;5010419;28;20060;-86
2023/08/20 07:06:18;;;;;;;11.73;10.48;;;27.80;81.40;;;;;;5011954;28;20029;-86
2023/08/20 07:08:44;;;;;;;11.75;10.70;;;27.90;81.50;;;;;;5011727;28;20026;-86
2023/08/20 07:11:10;;;;;;;12.10;10.82;;;27.90;81.60;;;;;;5010596;28;20482;-86
2023/08/20 07:13:36;;;;;;;12.15;10.95;;;27.90;81.40;;;;;;5011910;28;20026;-86
2023/08/20 07:16:02;;;;;;;12.63;10.32;;;28.00;81.20;;;;;;5010310;28;20030;-85
2023/08/20 07:18:28;;;;;;;12.00;10.80;;;28.00;81.00;;;;;;5011733;28;20367;-86
2023/08/20 07:20:55;;;;;;;11.82;10.63;;;28.00;81.00;;;;;;5011890;28;20030;-86
2023/08/20 07:23:22;;;;;;;11.88;10.43;;;28.00;81.00;;;;;;5011852;28;20129;-86
2023/08/20 07:25:48;;;;;;;10.00;9.07;;;28.00;80.70;;;;;;5009601;28;20069;-86
2023/08/20 07:28:14;;;;;;;11.10;9.45;;;28.00;79.90;;;;;;5009733;28;20033;-85
2023/08/20 07:30:40;;;;;;;9.88;8.88;;;28.10;79.70;;;;;;5011063;28;20375;-86
2023/08/20 07:33:07;;;;;;;11.98;8.38;;;28.10;78.30;;;;;;5010583;28;20037;-86
2023/08/20 07:35:33;;;;;;;9.82;8.82;;;28.10;77.20;;;;;;5009715;28;20042;-86
2023/08/20 07:37:58;;;;;;;9.85;8.50;;;28.10;77.50;;;;;;5026458;28;20113;-86
2023/08/20 07:40:24;;;;;;;9.57;8.60;;;28.10;76.80;;;;;;5011282;28;20702;-86
2023/08/20 07:42:50;;;;;;;10.63;8.85;;;28.20;76.50;;;;;;5026407;28;20026;-86
2023/08/20 07:45:16;;;;;;;9.75;8.75;;;28.20;76.50;;;;;;5026439;28;20030;-86
2023/08/20 07:47:42;;;;;;;10.93;8.65;;;28.20;76.80;;;;;;5011387;28;20034;-86
2023/08/20 07:50:08;;;;;;;9.43;8.40;;;28.20;76.70;;;;;;5011083;28;20030;-86
2023/08/20 07:52:34;;;;;;;10.70;8.93;;;28.30;76.90;;;;;;5009876;28;20535;-86
2023/08/20 07:54:59;;;;;;;11.02;8.57;;;28.30;76.60;;;;;;5011472;28;20026;-86
2023/08/20 07:57:25;;;;;;;9.98;8.98;;;28.40;76.90;;;;;;5011118;28;20034;-86
2023/08/20 07:59:51;;;;;;;11.07;9.90;;;28.40;76.70;;;;;;5009871;28;20041;-86
2023/08/20 08:02:18;;;;;;;10.65;9.25;;;28.40;77.00;;;;;;5026963;28;20044;-87
2023/08/20 08:04:44;;;;;;;10.23;9.32;;;28.40;77.10;;;;;;5011043;28;20531;-86
2023/08/20 08:07:11;;;;;;;12.80;10.32;;;28.40;77.20;;;;;;5011114;28;20096;-85
2023/08/20 08:09:37;;;;;;;10.48;9.48;;;28.40;77.10;;;;;;5010919;28;20112;-86
2023/08/20 08:12:04;;;;;;;12.13;11.00;;;28.50;77.60;;;;;;5026112;28;20116;-86
2023/08/20 08:14:29;;;;;;;10.90;9.90;;;28.50;77.80;;;;;;5023135;28;20018;-86
2023/08/20 08:16:55;;;;;;;11.48;9.82;;;28.50;78.10;;;;;;5029210;28;20030;-85
2023/08/20 08:19:21;;;;;;;15.27;10.20;;;28.50;78.20;;;;;;5045064;28;20124;-86
2023/08/20 08:21:47;;;;;;;11.73;10.60;;;28.50;78.30;;;;;;5032128;28;20541;-85
2023/08/20 08:24:14;;;;;;;15.30;10.00;;;28.50;78.10;;;;;;5034245;28;20026;-85
2023/08/20 08:26:41;;;;;;;11.48;10.38;;;28.50;78.00;;;;;;5033017;28;20087;-86
2023/08/20 08:29:08;;;;;;;11.13;9.50;;;28.50;78.00;;;;;;5032850;28;20029;-86
2023/08/20 08:31:34;;;;;;;10.88;9.88;;;28.50;78.00;;;;;;5033903;28;20017;-86
2023/08/20 08:34:02;;;;;;;11.57;10.10;;;28.50;78.10;;;;;;5034058;28;20023;-86
2023/08/20 08:36:29;;;;;;;12.27;10.02;;;28.50;78.20;;;;;;5033229;28;20041;-86
2023/08/20 08:38:54;;;;;;;10.88;9.77;;;28.50;78.20;;;;;;5032575;28;20029;-86
2023/08/20 08:41:24;;;;;;;11.25;10.18;;;28.50;78.60;;;;;;5033906;28;20026;-86
2023/08/20 08:43:50;;;;;;;11.27;10.23;;;28.50;78.90;;;;;;5033905;28;20033;-85
2023/08/20 08:46:16;;;;;;;12.20;10.55;;;28.50;79.00;;;;;;5033903;28;20100;-86
2023/08/20 08:48:47;;;;;;;11.55;10.35;;;28.50;79.00;;;;;;5049071;28;20102;-86
2023/08/20 08:51:13;;;;;;;11.55;10.38;;;28.50;79.20;;;;;;5049049;28;20091;-86
2023/08/20 08:53:39;;;;;;;11.82;10.32;;;28.50;79.40;;;;;;5033808;28;20029;-85
2023/08/20 08:56:07;;;;;;;14.65;11.60;;;28.50;79.40;;;;;;5033609;28;20049;-86
2023/08/20 08:58:33;;;;;;;12.10;10.73;;;28.60;79.60;;;;;;5033626;28;20030;-86
2023/08/20 09:00:59;;;;;;;11.95;10.77;;;28.60;79.80;;;;;;5033279;28;20097;-86
2023/08/20 09:03:25;;;;;;;11.23;10.15;;;28.60;79.80;;;;;;5031672;28;20029;-86
2023/08/20 09:06:10;;;;;;;11.60;10.10;;;28.50;79.40;;;;;;5030994;28;20029;-85
2023/08/20 09:08:36;;;;;;;10.50;9.40;;;28.60;79.00;;;;;;5032121;28;20029;-86
2023/08/20 09:11:02;;;;;;;10.82;9.68;;;28.60;78.50;;;;;;5030233;28;20025;-86
2023/08/20 09:13:39;;;;;;;11.30;9.95;;;28.60;78.00;;;;;;5032761;28;20034;-86
2023/08/20 09:16:06;;;;;;;9.60;8.70;;;28.60;77.70;;;;;;5032328;28;20017;-86
2023/08/20 09:18:37;;;;;;;10.45;9.45;;;28.60;77.50;;;;;;5032735;28;20028;-86
2023/08/20 09:21:06;;;;;;;15.95;9.35;;;28.60;77.30;;;;;;5031595;28;20029;-85
2023/08/20 09:23:32;;;;;;;12.70;8.90;;;28.60;77.30;;;;;;5030438;28;20574;-86
2023/08/20 09:26:02;;;;;;;9.82;8.82;;;28.60;77.00;;;;;;5030283;28;20037;-86
2023/08/20 09:28:28;;;;;;;10.57;9.27;;;28.60;76.50;;;;;;5031359;28;20029;-86
2023/08/20 09:31:02;;;;;;;9.32;8.32;;;28.60;76.20;;;;;;5031699;28;20045;-86
2023/08/20 09:33:28;;;;;;;10.02;8.85;;;28.60;76.00;;;;;;5030303;28;20022;-86
2023/08/20 09:35:54;;;;;;;10.68;8.35;;;28.60;75.90;;;;;;5032534;28;20042;-85
2023/08/20 09:38:21;;;;;;;10.10;8.25;;;28.60;75.40;;;;;;5031634;28;20034;-86
2023/08/20 09:40:49;;;;;;;9.73;8.30;;;28.60;75.10;;;;;;5031280;28;20396;-86
2023/08/20 09:43:16;;;;;;;9.05;7.78;;;28.60;74.90;;;;;;5031445;28;20025;-85
2023/08/20 09:45:43;;;;;;;9.32;8.50;;;28.70;75.10;;;;;;5032589;28;20029;-86
2023/08/20 09:48:10;;;;;;;9.25;8.32;;;28.70;75.00;;;;;;5031581;28;20037;-86
2023/08/20 09:50:37;;;;;;;9.55;8.52;;;28.70;75.00;;;;;;5030276;28;20405;-86
2023/08/20 09:53:10;;;;;;;10.63;8.65;;;28.70;75.20;;;;;;5031949;28;20018;-86
2023/08/20 09:55:38;;;;;;;10.25;8.35;;;28.70;75.00;;;;;;5032112;28;20017;-86
2023/08/20 09:58:05;;;;;;;9.35;8.43;;;28.70;74.40;;;;;;5031855;28;20022;-86
2023/08/20 10:00:32;;;;;;;8.70;7.70;;;28.70;74.00;;;;;;5047267;28;20073;-86
2023/08/20 10:02:58;;;;;;;8.32;7.53;;;28.70;73.40;;;;;;5030926;28;20029;-86
2023/08/20 10:05:24;;;;;;;10.68;7.78;;;28.70;73.00;;;;;;5031168;28;20116;-86
2023/08/20 10:07:50;;;;;;;9.20;7.45;;;28.70;72.60;;;;;;5032466;28;20029;-86
2023/08/20 10:10:16;;;;;;;8.95;7.10;;;28.70;72.00;;;;;;5047378;28;20374;-86
2023/08/20 10:12:44;;;;;;;9.13;7.57;;;28.70;72.20;;;;;;5047492;28;20063;-86
2023/08/20 10:15:12;;;;;;;8.48;7.22;;;28.70;71.90;;;;;;5047425;28;20405;-86
2023/08/20 10:17:40;;;;;;;8.55;7.65;;;28.70;71.80;;;;;;5031347;28;20049;-87
2023/08/20 10:20:07;;;;;;;8.55;7.50;;;28.70;71.90;;;;;;5030749;28;20040;-86
2023/08/20 10:22:35;;;;;;;11.55;8.35;;;28.70;72.00;;;;;;5032072;28;20028;-87
2023/08/20 10:25:04;;;;;;;8.85;7.95;;;28.70;71.60;;;;;;5047329;28;20543;-86
2023/08/20 10:27:36;;;;;;;8.60;7.80;;;28.80;71.40;;;;;;5030808;28;20496;-85
2023/08/20 10:30:11;;;;;;;8.68;7.45;;;28.80;71.30;;;;;;5031787;28;20393;-86
2023/08/20 10:32:52;;;;;;;8.10;7.07;;;28.80;70.60;;;;;;5029526;28;20026;-86
2023/08/20 10:35:29;;;;;;;10.05;6.70;;;28.80;70.30;;;;;;5028967;28;20428;-85
2023/08/20 10:38:11;;;;;;;10.45;7.07;;;28.70;70.20;;;;;;5029933;28;20052;-86
2023/08/20 10:41:00;;;;;;;7.72;6.57;;;28.80;70.10;;;;;;5030713;28;20025;-86
2023/08/20 10:43:40;;;;;;;10.68;6.82;;;28.80;69.60;;;;;;5029522;28;20524;-86
2023/08/20 10:46:20;;;;;;;7.10;6.40;;;28.80;68.60;;;;;;5028757;28;20018;-86
2023/08/20 10:48:51;;;;;;;10.77;6.78;;;28.80;68.60;;;;;;5029244;28;20124;-86
2023/08/20 10:51:26;;;;;;;12.05;7.10;;;28.80;68.50;;;;;;5030546;28;20037;-86
2023/08/20 10:54:00;;;;;;;8.88;6.43;;;28.90;68.50;;;;;;5029806;28;20030;-86
2023/08/20 10:56:38;;;;;;;7.20;6.10;;;28.90;68.20;;;;;;5031369;28;20116;-86
2023/08/20 10:59:21;;;;;;;8.07;6.43;;;28.90;67.90;;;;;;5044712;28;20025;-86
2023/08/20 11:01:51;;;;;;;6.90;5.85;;;28.90;67.80;;;;;;5029702;28;20052;-86
2023/08/20 11:04:20;;;;;;;8.65;6.15;;;28.90;67.60;;;;;;5028485;28;20478;-85
2023/08/20 11:06:49;;;;;;;8.52;6.30;;;28.90;67.30;;;;;;5046239;28;20026;-86
2023/08/20 11:09:15;;;;;;;8.27;6.05;;;29.00;67.60;;;;;;5031032;28;20120;-86
2023/08/20 11:11:41;;;;;;;11.35;6.13;;;29.00;68.60;;;;;;5029763;28;20489;-86
2023/08/20 11:14:14;;;;;;;8.88;6.75;;;29.00;69.60;;;;;;5046570;28;20029;-86
2023/08/20 11:16:41;;;;;;;7.88;6.43;;;29.00;69.50;;;;;;5029891;28;20035;-87
2023/08/20 11:19:10;;;;;;;7.13;6.03;;;29.00;69.60;;;;;;5031270;28;20044;-86
2023/08/20 11:21:38;;;;;;;6.68;6.05;;;29.00;69.40;;;;;;5028252;28;20079;-86
2023/08/20 11:24:04;;;;;;;5.93;5.32;;;29.00;69.00;;;;;;5028382;28;20028;-86
2023/08/20 11:26:30;;;;;;;8.65;6.63;;;29.10;68.50;;;;;;5029327;28;20017;-86
2023/08/20 11:28:56;;;;;;;8.88;5.90;;;29.10;68.20;;;;;;5029656;28;20419;-86
2023/08/20 11:31:22;;;;;;;6.68;5.97;;;29.00;68.00;;;;;;5029570;28;20091;-86
2023/08/20 11:33:49;;;;;;;6.53;5.72;;;29.00;68.00;;;;;;5027866;28;20029;-86
2023/08/20 11:36:20;;;;;;;8.27;5.88;;;29.10;67.90;;;;;;5025958;28;20418;-87
2023/08/20 11:38:53;;;;;;;18.65;6.22;;;29.10;67.60;;;;;;5027835;28;20053;-86
2023/08/20 11:41:20;;;;;;;10.65;6.00;;;29.10;67.20;;;;;;5027062;28;20035;-86
2023/08/20 11:43:46;;;;;;;10.77;6.28;;;29.10;67.00;;;;;;5029336;28;20075;-87
2023/08/20 11:46:18;;;;;;;9.90;5.93;;;29.10;66.90;;;;;;5028924;28;20036;-86
2023/08/20 11:49:08;;;;;;;7.82;5.68;;;29.20;67.20;;;;;;5029260;28;20025;-86
2023/08/20 11:51:39;;;;;;;;;;;29.20;67.20;;;;;;5031326;28;20032;-86
2023/08/20 11:54:25;;;;;;;7.13;5.80;;;29.10;67.60;;;;;;5029854;28;19971;-86
2023/08/20 11:56:51;;;;;;;6.40;5.68;;;29.10;67.70;;;;;;5033935;28;20025;-86
2023/08/20 11:59:19;;;;;;;9.02;6.05;;;29.10;67.70;;;;;;5033732;28;20026;-86
2023/08/20 12:01:51;;;;;;;8.70;5.88;;;29.20;67.50;;;;;;5034637;28;20078;-86
2023/08/20 12:04:17;;;;;;;8.68;5.97;;;29.20;67.70;;;;;;5033339;28;20108;-86
2023/08/20 12:06:42;;;;;;;7.05;5.78;;;29.20;67.40;;;;;;5050067;28;20116;-86
2023/08/20 12:09:22;;;;;;;6.20;5.40;;;29.20;67.10;;;;;;5034752;28;20030;-86
2023/08/20 12:11:52;;;;;;;8.80;5.87;;;29.20;67.00;;;;;;5033485;28;20030;-86
2023/08/20 12:14:18;;;;;;;;;;;29.20;66.50;;;;;;5033453;28;20112;-86
2023/08/20 12:16:44;;;;;;;7.90;5.20;;;29.10;67.00;;;;;;5034405;28;19996;-87
2023/08/20 12:19:10;;;;;;;7.97;5.68;;;29.10;66.40;;;;;;5034505;28;20545;-86
2023/08/20 12:21:36;;;;;;;6.47;5.50;;;29.10;66.20;;;;;;5032405;28;20108;-86
2023/08/20 12:24:01;;;;;;;9.88;6.00;;;29.10;66.10;;;;;;5032486;28;20061;-86
2023/08/20 12:26:28;;;;;;;7.20;5.95;;;29.10;66.00;;;;;;5032342;28;20111;-86
2023/08/20 12:28:54;;;;;;;8.68;6.10;;;29.20;65.90;;;;;;5031575;28;20053;-86
2023/08/20 12:31:20;;;;;;;7.05;6.10;;;29.10;65.80;;;;;;5030013;28;20021;-87
2023/08/20 12:33:46;;;;;;;7.53;6.35;;;29.10;66.20;;;;;;5031716;28;20084;-86